Time;durP1;ratioP1;P1;durP2;ratioP2;P2;SDS_P1;SDS_P2;PMS_P1;PMS_P2;Temp;Humidity;BMP_temperature;BMP_pressure;BME280_temperature;BME280_humidity;BME280_pressure;Samples;Min_cycle;Max_cycle;Signal;HPM_P1;HPM_P2
2021/12/30 00:00:36;;;;;;;2.80;2.70;;;;;;;4.97;100.00;91527.06;4880243;29;20218;-72
2021/12/30 00:03:03;;;;;;;2.50;1.70;;;;;;;4.88;100.00;91525.75;4880323;29;20599;-72
2021/12/30 00:05:30;;;;;;;3.80;1.90;;;;;;;4.93;100.00;91531.41;4880147;29;20475;-72
2021/12/30 00:07:57;;;;;;;2.30;1.70;;;;;;;4.99;100.00;91525.34;4879965;29;20619;-72
2021/12/30 00:10:25;;;;;;;2.87;2.77;;;;;;;5.00;100.00;91526.97;4879895;29;20211;-72
2021/12/30 00:12:53;;;;;;;2.80;2.70;;;;;;;4.97;100.00;91527.88;4879939;29;20209;-72
2021/12/30 00:15:22;;;;;;;3.37;3.03;;;;;;;4.96;100.00;91531.25;4880101;29;20596;-72
2021/12/30 00:17:49;;;;;;;6.00;1.77;;;;;;;4.93;100.00;91523.88;4879128;29;20503;-72
2021/12/30 00:20:18;;;;;;;1.47;1.47;;;;;;;4.95;100.00;91534.66;4879743;29;20449;-72
2021/12/30 00:22:45;;;;;;;3.30;2.97;;;;;;;4.99;100.00;91536.16;4879655;29;20619;-72
2021/12/30 00:25:13;;;;;;;1.50;1.50;;;;;;;5.05;100.00;91541.78;4879499;29;20615;-72
2021/12/30 00:27:41;;;;;;;2.57;2.50;;;;;;;5.09;100.00;91538.28;4880917;29;20491;-72
2021/12/30 00:30:11;;;;;;;2.10;2.00;;;;;;;5.09;100.00;91536.59;4879808;29;20667;-72
2021/12/30 00:32:40;;;;;;;1.03;1.03;;;;;;;5.10;100.00;91534.91;4880377;29;20584;-71
2021/12/30 00:35:09;;;;;;;1.73;1.70;;;;;;;5.03;100.00;91523.50;4879517;29;20487;-71
2021/12/30 00:37:37;;;;;;;1.90;1.80;;;;;;;5.08;100.00;91539.16;4880135;29;20480;-71
2021/12/30 00:40:05;;;;;;;2.53;2.33;;;;;;;5.13;100.00;91540.59;4879801;29;20580;-71
2021/12/30 00:42:33;;;;;;;2.07;1.97;;;;;;;5.10;100.00;91532.41;4879661;29;20565;-72
2021/12/30 00:45:00;;;;;;;0.77;0.77;;;;;;;5.15;100.00;91533.03;4879512;29;20199;-72
2021/12/30 00:47:27;;;;;;;2.30;2.20;;;;;;;5.15;100.00;91538.88;4881765;29;20480;-72
2021/12/30 00:49:56;;;;;;;2.83;2.73;;;;;;;5.10;100.00;91540.75;4883563;29;20449;-72
2021/12/30 00:52:24;;;;;;;1.73;1.73;;;;;;;4.98;100.00;91537.03;4883497;29;20706;-71
2021/12/30 00:54:51;;;;;;;2.23;2.13;;;;;;;5.06;100.00;91530.91;4883247;29;20586;-71
2021/12/30 00:57:18;;;;;;;1.30;1.23;;;;;;;5.11;100.00;91531.53;4883692;29;20536;-71
2021/12/30 00:59:46;;;;;;;1.20;1.20;;;;;;;5.10;100.00;91543.25;4883020;29;20237;-71
2021/12/30 01:02:13;;;;;;;2.20;2.10;;;;;;;5.02;100.00;91507.69;4883043;29;20611;-71
2021/12/30 01:04:40;;;;;;;1.93;1.87;;;;;;;5.08;100.00;91526.66;4864697;29;20583;-71
2021/12/30 01:07:09;;;;;;;9.87;1.20;;;;;;;5.11;100.00;91529.84;4874684;29;20488;-72
2021/12/30 01:09:37;;;;;;;3.20;1.30;;;;;;;4.94;100.00;91509.69;4883148;29;20230;-71
2021/12/30 01:12:05;;;;;;;0.90;0.90;;;;;;;5.09;100.00;91526.59;4883308;29;20214;-72
2021/12/30 01:14:35;;;;;;;0.67;0.67;;;;;;;5.13;100.00;91532.28;4883507;29;20462;-71
2021/12/30 01:17:15;;;;;;;0.63;0.63;;;;;;;5.14;100.00;91536.41;4882819;29;20274;-71
2021/12/30 01:19:45;;;;;;;0.80;0.80;;;;;;;5.21;100.00;91527.78;4883030;29;20195;-71
2021/12/30 01:22:16;;;;;;;0.50;0.50;;;;;;;5.20;100.00;91538.69;4882468;29;20644;-72
2021/12/30 01:24:44;;;;;;;0.60;0.60;;;;;;;5.18;100.00;91536.25;4882562;29;20210;-72
2021/12/30 01:27:11;;;;;;;1.23;1.23;;;;;;;5.20;100.00;91541.19;4882636;29;20579;-71
2021/12/30 01:29:39;;;;;;;3.07;0.70;;;;;;;5.20;100.00;91539.50;4882160;29;20210;-72
2021/12/30 01:32:07;;;;;;;0.87;0.87;;;;;;;5.23;100.00;91536.06;4882815;29;20564;-71
2021/12/30 01:34:34;;;;;;;1.60;1.60;;;;;;;5.22;100.00;91542.75;4882199;29;20499;-71
2021/12/30 01:37:04;;;;;;;1.50;1.40;;;;;;;5.20;100.00;91541.19;4882087;29;20202;-72
2021/12/30 01:39:36;;;;;;;1.27;1.27;;;;;;;5.12;100.00;91543.19;4882049;29;20659;-71
2021/12/30 01:42:05;;;;;;;0.97;0.97;;;;;;;5.14;100.00;91551.44;4881599;29;20299;-71
2021/12/30 01:44:33;;;;;;;1.23;1.23;;;;;;;5.13;100.00;91538.09;4881967;29;20697;-71
2021/12/30 01:47:01;;;;;;;0.80;0.80;;;;;;;5.18;100.00;91541.25;4882672;29;20575;-71
2021/12/30 01:49:29;;;;;;;1.40;1.40;;;;;;;5.21;100.00;91551.16;4882140;29;20561;-72
2021/12/30 01:51:58;;;;;;;1.23;1.23;;;;;;;5.26;100.00;91554.28;4881993;29;20211;-72
2021/12/30 01:54:26;;;;;;;1.50;1.50;;;;;;;5.10;100.00;91533.22;4882034;29;20563;-72
2021/12/30 01:56:58;;;;;;;1.33;1.33;;;;;;;5.19;100.00;91552.06;4881733;29;20480;-72
2021/12/30 01:59:26;;;;;;;1.37;1.37;;;;;;;5.09;100.00;91540.78;4881285;29;20230;-72
2021/12/30 02:01:56;;;;;;;1.43;1.43;;;;;;;5.13;100.00;91548.13;4880174;29;20210;-72
2021/12/30 02:04:24;;;;;;;5.57;1.97;;;;;;;5.01;100.00;91531.09;4875188;29;20612;-72
2021/12/30 02:06:51;;;;;;;2.17;1.17;;;;;;;5.15;100.00;91551.38;4881447;29;20497;-72
2021/12/30 02:09:20;;;;;;;1.10;1.10;;;;;;;5.12;100.00;91545.69;4881183;29;20596;-72
2021/12/30 02:11:47;;;;;;;0.90;0.90;;;;;;;5.15;100.00;91553.06;4880999;29;20630;-72
2021/12/30 02:14:23;;;;;;;2.00;1.20;;;;;;;5.20;100.00;91551.19;4878351;29;20498;-72
2021/12/30 02:16:52;;;;;;;1.07;1.07;;;;;;;5.19;100.00;91557.06;4877576;29;20494;-72
2021/12/30 02:19:20;;;;;;;1.43;1.43;;;;;;;5.14;100.00;91547.25;4879275;29;20495;-72
2021/12/30 02:21:48;;;;;;;1.00;1.00;;;;;;;5.18;100.00;91553.78;4879517;29;20206;-72
2021/12/30 02:24:16;;;;;;;1.07;1.07;;;;;;;5.24;100.00;91563.53;4881532;29;20627;-72
2021/12/30 02:26:43;;;;;;;1.03;1.03;;;;;;;5.15;100.00;91551.38;4881548;29;20583;-72
2021/12/30 02:29:10;;;;;;;0.80;0.80;;;;;;;5.29;100.00;91570.88;4881578;29;20583;-72
2021/12/30 02:31:39;;;;;;;1.50;1.40;;;;;;;5.17;100.00;91569.66;4860986;29;20644;-72
2021/12/30 02:34:07;;;;;;;1.97;1.87;;;;;;;5.19;100.00;91559.56;4862728;29;20627;-72
2021/12/30 02:36:37;;;;;;;1.23;1.23;;;;;;;5.20;100.00;91559.53;4870723;29;20568;-72
2021/12/30 02:39:09;;;;;;;1.10;1.10;;;;;;;5.22;100.00;91569.47;4880505;29;20616;-72
2021/12/30 02:41:38;;;;;;;3.07;1.83;;;;;;;5.14;100.00;91558.94;4880638;29;20512;-72
2021/12/30 02:44:07;;;;;;;2.13;2.03;;;;;;;5.12;100.00;91568.22;4881246;29;20616;-72
2021/12/30 02:46:35;;;;;;;3.07;2.87;;;;;;;5.14;100.00;91566.44;4880630;29;20560;-72
2021/12/30 02:49:04;;;;;;;2.00;1.90;;;;;;;5.20;100.00;91582.06;4880656;29;20568;-72
2021/12/30 02:51:31;;;;;;;2.37;2.23;;;;;;;5.25;100.00;91584.38;4881786;29;20560;-72
2021/12/30 02:53:59;;;;;;;1.70;1.70;;;;;;;5.24;100.00;91593.56;4880542;29;20461;-72
2021/12/30 02:56:29;;;;;;;1.90;1.80;;;;;;;5.17;100.00;91591.38;4881328;29;20221;-72
2021/12/30 02:58:56;;;;;;;0.70;0.70;;;;;;;5.12;100.00;91580.72;4880622;29;20525;-72
2021/12/30 03:01:27;;;;;;;2.00;1.90;;;;;;;5.13;100.00;91565.63;4881520;29;20606;-72
2021/12/30 03:03:54;;;;;;;1.87;1.40;;;;;;;5.26;100.00;91591.00;4863600;29;20596;-72
2021/12/30 03:06:22;;;;;;;0.97;0.87;;;;;;;5.31;100.00;91584.94;4880852;29;20586;-72
2021/12/30 03:08:50;;;;;;;6.93;0.73;;;;;;;5.36;100.00;91584.75;4880952;29;20207;-72
2021/12/30 03:11:19;;;;;;;0.93;0.60;;;;;;;5.35;100.00;91590.66;4879346;29;20556;-73
2021/12/30 03:13:48;;;;;;;0.73;0.73;;;;;;;5.34;100.00;91579.84;4881685;29;20437;-73
2021/12/30 03:16:17;;;;;;;0.50;0.50;;;;;;;5.40;100.00;91583.78;4880615;29;20663;-73
2021/12/30 03:18:48;;;;;;;0.50;0.50;;;;;;;5.37;100.00;91588.91;4880522;29;20649;-72
2021/12/30 03:21:17;;;;;;;0.40;0.40;;;;;;;5.35;100.00;91583.94;4880538;29;20674;-72
2021/12/30 03:23:45;;;;;;;0.47;0.47;;;;;;;5.26;100.00;91586.81;4880056;29;20246;-72
2021/12/30 03:26:13;;;;;;;0.73;0.57;;;;;;;5.27;100.00;91595.16;4880792;29;20599;-72
2021/12/30 03:28:41;;;;;;;0.80;0.80;;;;;;;5.30;100.00;91585.00;4879939;29;20584;-72
2021/12/30 03:31:10;;;;;;;0.50;0.50;;;;;;;5.38;100.00;91593.03;4880646;29;20637;-72
2021/12/30 03:33:38;;;;;;;0.70;0.70;;;;;;;5.40;100.00;91593.81;4879811;29;20557;-73
2021/12/30 03:36:08;;;;;;;6.20;2.67;;;;;;;5.41;100.00;91600.41;4880464;29;20598;-73
2021/12/30 03:38:37;;;;;;;0.90;0.90;;;;;;;5.27;100.00;91600.97;4881005;29;20199;-73
2021/12/30 03:41:06;;;;;;;0.70;0.70;;;;;;;5.32;100.00;91611.63;4879591;29;20592;-73
2021/12/30 03:43:34;;;;;;;0.77;0.77;;;;;;;5.37;100.00;91617.25;4880107;29;20549;-73
2021/12/30 03:46:01;;;;;;;0.53;0.53;;;;;;;5.38;100.00;91613.88;4880105;29;20587;-73
2021/12/30 03:48:33;;;;;;;1.13;1.13;;;;;;;5.41;100.00;91622.94;4879881;29;20194;-73
2021/12/30 03:51:04;;;;;;;0.73;0.73;;;;;;;5.42;100.00;91612.88;4880239;29;20206;-73
2021/12/30 03:53:32;;;;;;;1.23;1.23;;;;;;;5.44;100.00;91615.34;4880007;29;20206;-73
2021/12/30 03:55:59;;;;;;;0.80;0.80;;;;;;;5.39;100.00;91602.19;4880431;29;20595;-72
2021/12/30 03:58:26;;;;;;;1.03;1.00;;;;;;;5.41;100.00;91620.44;4880091;29;20229;-73
2021/12/30 04:00:53;;;;;;;0.93;0.93;;;;;;;5.38;100.00;91621.41;4879699;29;20481;-73
2021/12/30 04:03:20;;;;;;;1.10;1.10;;;;;;;5.35;100.00;91608.97;4879613;29;20657;-73
2021/12/30 04:05:49;;;;;;;1.03;1.03;;;;;;;5.35;100.00;91630.72;4879856;29;20513;-73
2021/12/30 04:08:16;;;;;;;0.97;0.87;;;;;;;5.31;100.00;91639.22;4879547;29;20202;-73
2021/12/30 04:10:43;;;;;;;1.40;1.30;;;;;;;5.18;100.00;91633.88;4879586;29;20206;-73
2021/12/30 04:13:11;;;;;;;1.10;1.10;;;;;;;5.28;100.00;91639.34;4880575;29;20499;-73
2021/12/30 04:15:38;;;;;;;1.13;1.03;;;;;;;5.31;100.00;91645.03;4880447;29;20615;-72
2021/12/30 04:18:05;;;;;;;4.37;4.10;;;;;;;5.21;100.00;91642.94;4881414;29;20492;-71
2021/12/30 04:20:32;;;;;;;2.90;2.80;;;;;;;5.23;100.00;91664.56;4880851;29;20651;-71
2021/12/30 04:23:01;;;;;;;2.27;2.17;;;;;;;5.29;100.00;91661.84;4883481;29;20245;-71
2021/12/30 04:25:28;;;;;;;4.87;1.33;;;;;;;5.32;100.00;91661.69;4884460;29;20583;-71
2021/12/30 04:27:55;;;;;;;1.23;1.23;;;;;;;5.32;100.00;91666.72;4882698;29;20563;-71
2021/12/30 04:30:23;;;;;;;1.70;0.70;;;;;;;5.36;100.00;91677.41;4883903;29;20477;-71
2021/12/30 04:32:50;;;;;;;0.97;0.97;;;;;;;5.33;100.00;91678.34;4883318;29;20549;-72
2021/12/30 04:35:17;;;;;;;1.00;1.00;;;;;;;5.43;100.00;91687.13;4883085;29;20584;-73
2021/12/30 04:37:44;;;;;;;1.70;1.20;;;;;;;5.47;100.00;91690.34;4883226;29;20258;-72
2021/12/30 04:40:15;;;;;;;0.80;0.80;;;;;;;5.53;100.00;91696.78;4883123;29;20587;-72
2021/12/30 04:42:43;;;;;;;1.47;1.47;;;;;;;5.41;100.00;91705.59;4882863;29;20556;-73
2021/12/30 04:45:12;;;;;;;1.50;1.50;;;;;;;5.43;100.00;91713.88;4883366;29;20199;-72
2021/12/30 04:47:39;;;;;;;2.83;1.37;;;;;;;5.50;100.00;91720.28;4883734;29;20579;-72
2021/12/30 04:50:08;;;;;;;0.90;0.90;;;;;;;5.53;100.00;91727.66;4883034;29;20517;-72
2021/12/30 04:52:36;;;;;;;8.03;0.90;;;;;;;5.53;100.00;91730.16;4882483;29;20586;-72
2021/12/30 04:55:04;;;;;;;0.73;0.73;;;;;;;5.48;99.66;91734.53;4882963;29;20524;-72
2021/12/30 04:57:33;;;;;;;0.93;0.93;;;;;;;5.55;100.00;91732.63;4882751;29;20557;-72
2021/12/30 05:00:01;;;;;;;0.90;0.90;;;;;;;5.52;100.00;91736.06;4882771;29;20607;-72
2021/12/30 05:02:39;;;;;;;1.47;1.47;;;;;;;5.46;99.40;91730.50;4883025;29;20485;-72
2021/12/30 05:05:07;;;;;;;2.50;2.00;;;;;;;5.45;100.00;91734.69;4882343;29;20596;-72
2021/12/30 05:07:34;;;;;;;2.60;2.50;;;;;;;5.44;100.00;91733.03;4883493;29;20214;-72
2021/12/30 05:10:01;;;;;;;1.07;1.07;;;;;;;5.42;100.00;91733.09;4882526;29;20584;-72
2021/12/30 05:12:28;;;;;;;2.27;2.17;;;;;;;5.35;100.00;91739.19;4883609;29;20493;-72
2021/12/30 05:14:57;;;;;;;1.07;1.07;;;;;;;5.29;100.00;91736.13;4881905;29;20591;-72
2021/12/30 05:17:28;;;;;;;4.43;2.30;;;;;;;5.34;100.00;91747.59;4882711;29;20646;-72
2021/12/30 05:19:56;;;;;;;1.37;1.37;;;;;;;5.25;100.00;91740.41;4882539;29;20233;-72
2021/12/30 05:22:23;;;;;;;8.20;4.00;;;;;;;5.39;100.00;91763.28;4882124;29;20198;-72
2021/12/30 05:24:50;;;;;;;2.33;2.30;;;;;;;5.41;100.00;91764.00;4882516;29;20485;-72
2021/12/30 05:27:19;;;;;;;6.17;4.30;;;;;;;5.28;100.00;91764.53;4882972;29;20485;-72
2021/12/30 05:29:47;;;;;;;3.27;1.80;;;;;;;5.30;100.00;91775.28;4882051;29;20569;-72
2021/12/30 05:32:15;;;;;;;25.43;14.30;;;;;;;5.33;100.00;91773.50;4882098;29;20462;-72
2021/12/30 05:34:42;;;;;;;17.20;9.13;;;;;;;5.36;100.00;91768.38;4882188;29;20529;-73
2021/12/30 05:37:09;;;;;;;5.07;2.20;;;;;;;5.33;100.00;91768.50;4882200;29;20545;-72
2021/12/30 05:39:41;;;;;;;2.30;2.17;;;;;;;5.34;99.03;91785.16;4882734;29;20564;-72
2021/12/30 05:42:08;;;;;;;56.70;18.53;;;;;;;5.38;99.48;91770.84;4882505;29;20484;-72
2021/12/30 05:44:35;;;;;;;6.30;5.67;;;;;;;5.40;99.88;91777.44;4882639;29;20226;-72
2021/12/30 05:47:03;;;;;;;8.33;3.77;;;;;;;5.40;100.00;91781.63;4881874;29;20524;-73
2021/12/30 05:49:32;;;;;;;4.37;3.37;;;;;;;5.42;100.00;91779.84;4882120;29;20473;-73
2021/12/30 05:51:59;;;;;;;11.87;8.63;;;;;;;5.36;98.91;91785.09;4882324;29;20541;-74
2021/12/30 05:54:26;;;;;;;2.40;2.30;;;;;;;5.48;98.69;91784.63;4882050;29;20611;-73
2021/12/30 05:56:53;;;;;;;2.30;2.20;;;;;;;5.34;98.67;91780.16;4881664;29;20596;-72
2021/12/30 05:59:21;;;;;;;2.70;2.57;;;;;;;5.50;98.78;91797.94;4881289;29;20572;-72
2021/12/30 06:01:48;;;;;;;3.23;1.60;;;;;;;5.50;98.83;91802.94;4881691;29;20493;-72
2021/12/30 06:04:15;;;;;;;3.30;1.80;;;;;;;5.52;98.70;91803.69;4881847;29;20595;-72
2021/12/30 06:06:44;;;;;;;2.73;2.60;;;;;;;5.56;99.70;91805.22;4882329;29;20195;-73
2021/12/30 06:09:11;;;;;;;2.73;2.50;;;;;;;5.47;99.68;91810.56;4882257;29;20561;-72
2021/12/30 06:11:39;;;;;;;2.73;2.63;;;;;;;5.49;100.00;91810.50;4881607;29;20660;-71
2021/12/30 06:14:06;;;;;;;5.63;5.13;;;;;;;5.52;100.00;91810.41;4881741;29;20203;-74
2021/12/30 06:16:33;;;;;;;11.37;7.23;;;;;;;5.50;100.00;91834.69;4875039;29;20617;-73
2021/12/30 06:19:01;;;;;;;7.37;6.50;;;;;;;5.49;100.00;91833.03;4870180;29;20211;-71
2021/12/30 06:21:28;;;;;;;5.13;4.77;;;;;;;5.43;100.00;91839.09;4872034;29;20580;-71
2021/12/30 06:23:57;;;;;;;3.00;2.80;;;;;;;5.37;98.01;91860.16;4873674;29;20605;-71
2021/12/30 06:26:24;;;;;;;6.23;5.73;;;;;;;5.39;98.96;91860.13;4874335;29;20580;-72
2021/12/30 06:28:51;;;;;;;12.30;10.70;;;;;;;5.37;99.74;91859.34;4878461;29;20481;-72
2021/12/30 06:31:21;;;;;;;13.57;12.27;;;;;;;5.33;100.00;91845.31;4877718;29;20210;-72
2021/12/30 06:33:50;;;;;;;4.17;3.97;;;;;;;5.36;97.95;91876.06;4879194;29;20470;-72
2021/12/30 06:36:22;;;;;;;11.70;5.97;;;;;;;5.42;96.72;91882.53;4872208;29;20572;-72
2021/12/30 06:38:49;;;;;;;11.90;9.30;;;;;;;5.45;96.40;91886.63;4874383;29;20603;-72
2021/12/30 06:41:18;;;;;;;10.23;8.37;;;;;;;5.50;97.09;91890.63;4872904;29;20576;-73
2021/12/30 06:43:45;;;;;;;8.03;6.33;;;;;;;5.53;97.51;91894.69;4873693;29;20629;-73
2021/12/30 06:46:12;;;;;;;17.33;12.63;;;;;;;5.62;97.67;91901.88;4871321;29;20568;-72
2021/12/30 06:48:44;;;;;;;8.57;7.67;;;;;;;5.53;98.59;91900.50;4874263;29;20588;-73
2021/12/30 06:51:12;;;;;;;4.87;4.57;;;;;;;5.31;99.52;91882.09;4870925;29;20479;-73
2021/12/30 06:53:39;;;;;;;4.60;4.40;;;;;;;5.44;99.97;91900.84;4877433;29;20575;-73
2021/12/30 06:56:07;;;;;;;11.33;9.30;;;;;;;5.43;100.00;91899.19;4874153;29;20218;-73
2021/12/30 06:58:36;;;;;;;7.30;6.40;;;;;;;5.37;100.00;91884.38;4872900;29;20554;-73
2021/12/30 07:01:04;;;;;;;11.07;8.97;;;;;;;5.55;100.00;91911.31;4873390;29;20619;-73
2021/12/30 07:03:32;;;;;;;12.37;8.87;;;;;;;5.59;100.00;91917.00;4871363;29;20484;-73
2021/12/30 07:05:59;;;;;;;23.63;14.30;;;;;;;5.56;100.00;91914.63;4873934;29;20586;-73
2021/12/30 07:08:26;;;;;;;13.53;12.13;;;;;;;5.48;100.00;91922.41;4877918;29;20556;-73
2021/12/30 07:10:54;;;;;;;14.20;12.23;;;;;;;5.22;100.00;91915.78;4873066;29;20553;-73
2021/12/30 07:13:21;;;;;;;15.37;11.07;;;;;;;5.33;100.00;91928.75;4869559;29;20533;-72
2021/12/30 07:15:49;;;;;;;9.17;8.27;;;;;;;5.41;100.00;91928.47;4872500;29;20521;-73
2021/12/30 07:18:17;;;;;;;8.00;7.27;;;;;;;5.42;100.00;91933.44;4873912;29;20468;-73
2021/12/30 07:20:44;;;;;;;3.20;3.10;;;;;;;5.42;100.00;91950.16;4868653;29;20245;-72
2021/12/30 07:23:12;;;;;;;6.33;5.70;;;;;;;5.47;100.00;91952.50;4872127;29;20602;-74
2021/12/30 07:25:39;;;;;;;4.27;4.07;;;;;;;5.50;100.00;91948.22;4874099;29;20239;-73
2021/12/30 07:28:07;;;;;;;24.77;14.73;;;;;;;5.50;100.00;91954.91;4871099;29;20573;-73
2021/12/30 07:30:34;;;;;;;25.33;17.47;;;;;;;5.61;100.00;91963.69;4872308;29;20555;-75
2021/12/30 07:33:06;;;;;;;10.97;10.00;;;;;;;5.66;100.00;91956.84;4868206;29;20538;-74
2021/12/30 07:35:35;;;;;;;8.23;7.40;;;;;;;5.69;100.00;91953.41;4872941;29;20603;-75
2021/12/30 07:38:04;;;;;;;8.03;7.43;;;;;;;5.74;100.00;91964.91;4869744;29;20561;-74
2021/12/30 07:43:16;;;;;;;6.23;5.83;;;;;;;5.69;100.00;91964.22;4875923;29;20610;-74
2021/12/30 07:45:43;;;;;;;6.77;6.23;;;;;;;5.71;100.00;91965.00;4875122;29;20246;-72
2021/12/30 07:48:12;;;;;;;6.13;5.47;;;;;;;5.74;100.00;91969.09;4876260;29;20614;-72
2021/12/30 07:50:39;;;;;;;17.30;8.87;;;;;;;5.75;100.00;91975.72;4876981;29;20493;-74
2021/12/30 07:53:07;;;;;;;8.33;7.37;;;;;;;5.73;100.00;91985.84;4871597;29;20595;-73
2021/12/30 07:55:34;;;;;;;6.07;5.60;;;;;;;5.55;100.00;91998.16;4873783;29;20334;-72
2021/12/30 07:58:01;;;;;;;6.23;4.80;;;;;;;5.55;100.00;91996.47;4873152;29;20590;-73
2021/12/30 08:00:28;;;;;;;10.40;8.03;;;;;;;5.55;100.00;91998.97;4876827;29;20583;-72
2021/12/30 08:02:56;;;;;;;5.93;5.40;;;;;;;5.63;100.00;92006.25;4877610;29;20572;-73
2021/12/30 08:05:24;;;;;;;5.63;5.10;;;;;;;5.58;100.00;91998.88;4869230;29;20521;-72
2021/12/30 08:07:52;;;;;;;7.73;6.17;;;;;;;5.58;100.00;92010.56;4869283;29;20501;-73
2021/12/30 08:10:22;;;;;;;4.90;4.57;;;;;;;5.56;100.00;92020.66;4871656;29;20674;-72
2021/12/30 08:12:50;;;;;;;5.40;5.10;;;;;;;5.55;100.00;92014.00;4871419;29;20608;-72
2021/12/30 08:15:18;;;;;;;13.60;7.87;;;;;;;5.66;100.00;92021.16;4876772;29;20828;-72
2021/12/30 08:17:47;;;;;;;15.23;8.63;;;;;;;5.66;100.00;92027.00;4871604;29;20502;-73
2021/12/30 08:20:16;;;;;;;13.60;9.50;;;;;;;5.70;100.00;92031.03;4869921;29;20472;-72
2021/12/30 08:22:45;;;;;;;6.90;6.50;;;;;;;5.73;100.00;92035.94;4872486;29;20572;-72
2021/12/30 08:25:14;;;;;;;5.63;5.33;;;;;;;5.79;100.00;92038.25;4871158;29;20245;-72
2021/12/30 08:27:42;;;;;;;5.57;5.10;;;;;;;5.84;100.00;92041.41;4877388;29;20221;-73
2021/12/30 08:30:12;;;;;;;3.97;3.77;;;;;;;5.87;100.00;92044.66;4875488;29;20198;-73
2021/12/30 08:32:40;;;;;;;69.70;29.00;;;;;;;5.71;100.00;92049.38;4871592;29;20474;-73
2021/12/30 08:35:10;;;;;;;24.97;12.33;;;;;;;5.72;100.00;92056.84;4874602;29;20488;-73
2021/12/30 08:37:37;;;;;;;11.73;7.47;;;;;;;5.69;100.00;92051.94;4876496;29;20515;-73
2021/12/30 08:40:08;;;;;;;5.43;5.07;;;;;;;5.67;100.00;92048.69;4873990;29;20492;-73
2021/12/30 08:42:37;;;;;;;12.57;6.80;;;;;;;5.80;100.00;92062.41;4875400;29;20203;-73
2021/12/30 08:45:06;;;;;;;6.40;5.67;;;;;;;5.76;100.00;92063.41;4874811;29;20253;-73
2021/12/30 08:47:34;;;;;;;3.73;3.53;;;;;;;5.75;100.00;92051.72;4874197;29;20474;-73
2021/12/30 08:50:02;;;;;;;5.50;5.10;;;;;;;5.86;100.00;92061.38;4866388;29;20200;-73
2021/12/30 08:52:30;;;;;;;24.37;12.80;;;;;;;5.96;100.00;92055.25;4870514;29;20490;-73
2021/12/30 08:54:59;;;;;;;38.23;16.70;;;;;;;5.98;100.00;92057.69;4873037;29;20222;-73
2021/12/30 08:57:28;;;;;;;12.90;10.30;;;;;;;5.95;100.00;92065.31;4872084;29;20610;-73
2021/12/30 08:59:56;;;;;;;7.50;6.90;;;;;;;5.93;100.00;92067.03;4862289;29;20585;-73
2021/12/30 09:02:23;;;;;;;10.87;7.57;;;;;;;5.81;100.00;92060.72;4877293;29;20474;-73
2021/12/30 09:04:50;;;;;;;5.23;4.83;;;;;;;5.88;100.00;92063.88;4876564;29;20242;-72
2021/12/30 09:07:19;;;;;;;5.13;4.83;;;;;;;5.78;100.00;92065.84;4877637;29;20602;-73
2021/12/30 09:09:47;;;;;;;5.00;4.70;;;;;;;5.74;100.00;92064.34;4874535;29;20206;-74
2021/12/30 09:12:14;;;;;;;6.30;5.73;;;;;;;5.71;100.00;92072.75;4871210;29;20206;-76
2021/12/30 09:14:43;;;;;;;2.63;2.53;;;;;;;5.67;100.00;92067.91;4882104;29;20464;-75
2021/12/30 09:17:10;;;;;;;2.80;2.60;;;;;;;5.60;100.00;92054.75;4878354;29;20690;-76
2021/12/30 09:19:37;;;;;;;2.57;2.47;;;;;;;5.63;100.00;92046.34;4873555;29;20581;-76
2021/12/30 09:22:04;;;;;;;4.30;3.40;;;;;;;5.69;100.00;92049.44;4866871;29;20553;-75
2021/12/30 09:24:32;;;;;;;1.87;1.77;;;;;;;5.79;100.00;92065.81;4874679;29;20245;-75
2021/12/30 09:26:59;;;;;;;2.93;2.73;;;;;;;5.93;100.00;92064.53;4872150;29;20515;-75
2021/12/30 09:29:26;;;;;;;2.30;2.20;;;;;;;5.97;100.00;92064.38;4869049;29;20487;-73
2021/12/30 09:31:55;;;;;;;12.37;1.50;;;;;;;6.10;100.00;92078.13;4869016;29;20601;-73
2021/12/30 09:34:23;;;;;;;1.40;1.37;;;;;;;6.20;100.00;92076.13;4873756;29;20623;-74
2021/12/30 09:36:50;;;;;;;3.27;3.17;;;;;;;6.25;99.86;92077.59;4875328;29;20557;-74
2021/12/30 09:39:17;;;;;;;2.40;2.20;;;;;;;6.22;99.05;92075.22;4872605;29;20573;-74
2021/12/30 09:41:47;;;;;;;2.87;2.70;;;;;;;6.38;99.33;92092.22;4873926;29;20502;-74
2021/12/30 09:44:18;;;;;;;2.53;2.40;;;;;;;6.31;98.89;92070.75;4875919;29;20651;-73
2021/12/30 09:46:47;;;;;;;5.77;2.97;;;;;;;6.33;98.77;92089.88;4868775;29;20476;-73
2021/12/30 09:49:18;;;;;;;5.47;4.43;;;;;;;6.37;98.33;92093.91;4873409;29;20583;-74
2021/12/30 09:51:46;;;;;;;3.17;3.07;;;;;;;6.35;98.15;92097.34;4872862;29;20243;-74
2021/12/30 09:54:13;;;;;;;2.03;1.93;;;;;;;6.13;95.64;92112.34;4873668;29;20592;-72
2021/12/30 09:56:41;;;;;;;2.03;1.93;;;;;;;5.98;96.49;92103.63;4873388;29;20206;-72
2021/12/30 09:59:09;;;;;;;1.67;1.67;;;;;;;6.01;96.90;92101.03;4873261;29;20568;-72
2021/12/30 10:01:38;;;;;;;3.30;3.10;;;;;;;5.99;96.35;92104.44;4877335;29;20664;-71
2021/12/30 10:04:06;;;;;;;2.50;2.30;;;;;;;5.96;96.04;92100.38;4869862;29;20215;-72
2021/12/30 10:06:36;;;;;;;7.13;6.00;;;;;;;6.09;94.76;92118.28;4879156;29;20253;-72
2021/12/30 10:09:11;;;;;;;6.40;5.80;;;;;;;6.22;93.56;92132.88;4877104;29;20568;-75
2021/12/30 10:11:49;;;;;;;20.07;12.20;;;;;;;6.11;92.54;92104.03;4878421;29;20546;-74
2021/12/30 10:14:32;;;;;;;16.00;8.47;;;;;;;6.34;92.92;92123.31;4874109;29;20480;-74
2021/12/30 10:17:23;;;;;;;8.57;7.73;;;;;;;6.40;93.30;92123.09;4876115;29;20523;-73
2021/12/30 10:19:55;;;;;;;13.30;6.90;;;;;;;6.46;93.78;92122.88;4871331;29;20679;-74
2021/12/30 10:22:26;;;;;;;4.87;4.40;;;;;;;6.36;92.71;92107.34;4871271;29;20584;-73
2021/12/30 10:24:55;;;;;;;7.13;5.83;;;;;;;6.51;93.18;92116.00;4869358;29;20595;-75
2021/12/30 10:28:00;;;;;;;8.97;4.93;;;;;;;6.60;93.48;92128.22;4871931;29;20211;-74
2021/12/30 10:30:32;;;;;;;22.90;10.60;;;;;;;6.57;93.13;92135.88;4832307;29;20621;-72
2021/12/30 10:33:12;;;;;;;12.97;7.63;;;;;;;6.52;92.16;92150.25;4837222;29;20570;-73
2021/12/30 10:35:44;;;;;;;4.50;4.10;;;;;;;6.48;91.74;92154.56;4833154;29;20577;-73
2021/12/30 10:38:14;;;;;;;7.40;6.77;;;;;;;6.41;91.43;92150.66;4835526;29;20611;-73
2021/12/30 10:40:44;;;;;;;6.03;3.80;;;;;;;6.41;90.34;92159.84;4836245;29;20584;-73
2021/12/30 10:43:24;;;;;;;5.13;4.60;;;;;;;6.41;91.04;92159.84;4836620;29;20594;-73
2021/12/30 10:46:12;;;;;;;3.47;3.20;;;;;;;6.29;91.67;92133.50;4832022;29;20375;-73
2021/12/30 10:48:55;;;;;;;6.27;5.50;;;;;;;6.37;90.71;92161.63;4832377;29;20258;-72
2021/12/30 10:51:25;;;;;;;6.17;5.80;;;;;;;6.35;91.33;92155.88;4832559;29;20503;-72
2021/12/30 10:53:55;;;;;;;6.23;5.67;;;;;;;6.23;91.47;92139.53;4830845;29;20506;-72
2021/12/30 10:56:30;;;;;;;2.60;2.43;;;;;;;6.34;90.58;92164.25;4835701;29;20593;-73
2021/12/30 10:59:13;;;;;;;2.10;2.03;;;;;;;6.36;89.26;92174.25;4832626;29;20492;-73
2021/12/30 11:01:42;;;;;;;3.13;3.03;;;;;;;6.31;89.48;92171.88;4836928;29;20383;-73
2021/12/30 11:04:09;;;;;;;4.27;4.07;;;;;;;6.32;88.95;92168.50;4837632;29;20371;-73
2021/12/30 11:06:37;;;;;;;4.43;3.37;;;;;;;6.33;88.57;92171.81;4833697;29;20648;-73
2021/12/30 11:09:09;;;;;;;5.50;4.17;;;;;;;6.41;88.36;92178.25;4829308;29;20287;-71
2021/12/30 11:11:40;;;;;;;5.50;5.10;;;;;;;6.41;88.66;92170.72;4836835;29;20476;-72
2021/12/30 11:14:10;;;;;;;4.87;2.10;;;;;;;6.48;88.09;92177.13;4836032;29;20571;-72
2021/12/30 11:16:57;;;;;;;5.43;5.03;;;;;;;6.36;88.08;92164.22;4831563;29;20641;-72
2021/12/30 11:19:26;;;;;;;4.77;4.33;;;;;;;6.42;87.61;92194.13;4834960;29;20501;-72
2021/12/30 11:21:54;;;;;;;5.77;5.20;;;;;;;6.38;88.70;92190.88;4835111;29;20584;-72
2021/12/30 11:24:23;;;;;;;5.93;5.47;;;;;;;6.43;89.53;92193.22;4832783;29;20631;-72
2021/12/30 11:26:50;;;;;;;5.20;4.90;;;;;;;6.46;90.22;92183.91;4832891;29;20624;-72
2021/12/30 11:29:18;;;;;;;5.07;4.70;;;;;;;6.47;89.42;92193.09;4839724;29;20537;-72
2021/12/30 11:31:46;;;;;;;5.33;5.03;;;;;;;6.40;90.11;92186.63;4833802;29;20597;-72
2021/12/30 11:34:14;;;;;;;4.10;3.37;;;;;;;6.34;90.26;92188.53;4865987;29;20234;-73
2021/12/30 11:36:41;;;;;;;4.13;3.93;;;;;;;6.33;91.40;92177.66;4870809;29;20573;-73
2021/12/30 11:39:15;;;;;;;2.30;1.63;;;;;;;6.35;93.24;92180.97;4872281;29;20655;-73
2021/12/30 11:41:48;;;;;;;4.00;3.70;;;;;;;6.32;94.08;92182.72;4869565;29;20606;-72
2021/12/30 11:44:40;;;;;;;2.90;2.80;;;;;;;6.29;94.60;92203.72;4875935;29;20567;-73